createdAt,value
2018-07-24T00:00:32.404Z,947.92
2018-07-24T00:01:32.399Z,947.89
2018-07-24T00:02:32.399Z,947.92
2018-07-24T00:03:32.393Z,947.90
2018-07-24T00:04:32.391Z,947.88
2018-07-24T00:05:32.403Z,947.88
2018-07-24T00:06:32.391Z,947.88
2018-07-24T00:07:32.382Z,947.88
2018-07-24T00:08:32.385Z,947.84
2018-07-24T00:09:32.381Z,947.85
2018-07-24T00:10:32.383Z,947.87
2018-07-24T00:11:32.378Z,947.84
2018-07-24T00:12:32.375Z,947.84
2018-07-24T00:13:32.367Z,947.82
2018-07-24T00:14:32.373Z,947.81
2018-07-24T00:15:32.369Z,947.80
2018-07-24T00:16:32.368Z,947.84
2018-07-24T00:17:32.363Z,947.83
2018-07-24T00:18:32.365Z,947.85
2018-07-24T00:19:32.361Z,947.87
2018-07-24T00:20:32.362Z,947.81
2018-07-24T00:21:32.354Z,947.85
2018-07-24T00:22:32.352Z,947.83
2018-07-24T00:23:32.349Z,947.82
2018-07-24T00:24:32.348Z,947.80
2018-07-24T00:25:32.352Z,947.84
2018-07-24T00:26:32.353Z,947.81
2018-07-24T00:27:32.338Z,947.77
2018-07-24T00:28:32.337Z,947.79
2018-07-24T00:29:32.367Z,947.77
2018-07-24T00:30:32.335Z,947.77
2018-07-24T00:31:32.335Z,947.77
2018-07-24T00:32:32.333Z,947.78
2018-07-24T00:33:32.331Z,947.78
2018-07-24T00:34:32.327Z,947.76
2018-07-24T00:35:32.321Z,947.72
2018-07-24T00:36:32.321Z,947.72
2018-07-24T00:37:32.318Z,947.67
2018-07-24T00:38:32.318Z,947.74
2018-07-24T00:39:32.315Z,947.74
2018-07-24T00:40:32.311Z,947.71
2018-07-24T00:41:32.300Z,947.69
2018-07-24T00:42:32.306Z,947.64
2018-07-24T00:43:32.308Z,947.67
2018-07-24T00:44:32.309Z,947.63
2018-07-24T00:45:32.300Z,947.60
2018-07-24T00:46:32.299Z,947.62
2018-07-24T00:47:32.302Z,947.62
2018-07-24T00:48:32.294Z,947.61
2018-07-24T00:49:32.291Z,947.57
2018-07-24T00:50:32.289Z,947.58
2018-07-24T00:51:32.287Z,947.52
2018-07-24T00:52:32.284Z,947.56
2018-07-24T00:53:32.279Z,947.52
2018-07-24T00:54:32.278Z,947.51
2018-07-24T00:55:32.280Z,947.54
2018-07-24T00:56:32.270Z,947.52
2018-07-24T00:57:32.274Z,947.46
2018-07-24T00:58:32.273Z,947.47
2018-07-24T00:59:32.264Z,947.45
2018-07-24T01:00:32.264Z,947.42
2018-07-24T01:01:32.261Z,947.44
2018-07-24T01:02:32.259Z,947.43
2018-07-24T01:03:32.254Z,947.42
2018-07-24T01:04:32.255Z,947.39
2018-07-24T01:05:32.250Z,947.44
2018-07-24T01:06:32.250Z,947.42
2018-07-24T01:07:32.242Z,947.41
2018-07-24T01:08:32.293Z,947.43
2018-07-24T01:09:32.237Z,947.42
2018-07-24T01:10:32.240Z,947.43
2018-07-24T01:11:32.236Z,947.43
2018-07-24T01:12:32.234Z,947.44
2018-07-24T01:13:32.233Z,947.39
2018-07-24T01:14:32.228Z,947.44
2018-07-24T01:15:32.226Z,947.41
2018-07-24T01:16:32.267Z,947.41
2018-07-24T01:17:32.219Z,947.41
2018-07-24T01:18:32.219Z,947.39
2018-07-24T01:19:32.213Z,947.42
2018-07-24T01:20:32.213Z,947.38
2018-07-24T01:21:32.209Z,947.34
2018-07-24T01:22:32.206Z,947.34
2018-07-24T01:23:32.210Z,947.34
2018-07-24T01:24:32.200Z,947.31
2018-07-24T01:25:32.199Z,947.31
2018-07-24T01:26:32.203Z,947.29
2018-07-24T01:27:32.199Z,947.32
2018-07-24T01:28:32.194Z,947.27
2018-07-24T01:29:32.186Z,947.28
2018-07-24T01:30:32.187Z,947.25
2018-07-24T02:04:13.919Z,946.91
2018-07-24T02:05:13.897Z,946.92
2018-07-24T02:07:06.929Z,946.93
2018-07-24T02:08:06.902Z,946.91
2018-07-24T02:09:59.923Z,946.92
2018-07-24T02:10:59.908Z,946.93
2018-07-24T02:12:53.014Z,946.92
2018-07-24T02:13:52.995Z,946.93
2018-07-24T02:15:45.900Z,946.92
2018-07-24T02:16:45.890Z,946.88
2018-07-24T02:18:38.789Z,946.90
2018-07-24T02:19:38.767Z,946.88
2018-07-24T02:21:31.676Z,946.91
2018-07-24T02:22:31.649Z,946.87
2018-07-24T02:24:24.538Z,946.89
2018-07-24T02:25:24.524Z,946.85
2018-07-24T02:27:17.436Z,946.83
2018-07-24T02:28:17.405Z,946.84
2018-07-24T02:30:10.305Z,946.83
2018-07-24T02:31:10.287Z,946.88
2018-07-24T02:33:03.194Z,946.84
2018-07-24T02:34:03.180Z,946.85
2018-07-24T02:35:56.070Z,946.84
2018-07-24T02:36:56.057Z,946.86
2018-07-24T02:38:48.957Z,946.86
2018-07-24T02:39:48.919Z,946.85
2018-07-24T02:41:41.852Z,946.84
2018-07-24T02:42:41.815Z,946.84
2018-07-24T02:44:34.721Z,946.79
2018-07-24T02:45:34.706Z,946.80
2018-07-24T02:47:27.626Z,946.73
2018-07-24T02:48:27.590Z,946.77
2018-07-24T02:50:21.504Z,946.75
2018-07-24T02:51:21.511Z,946.75
2018-07-24T02:53:14.399Z,946.76
2018-07-24T02:54:14.376Z,946.74
2018-07-24T02:56:07.282Z,946.72
2018-07-24T02:57:07.266Z,946.70
2018-07-24T02:59:00.214Z,946.70
2018-07-24T03:00:00.165Z,946.68
2018-07-24T03:01:53.085Z,946.71
2018-07-24T03:02:53.044Z,946.71
2018-07-24T03:04:45.943Z,946.71
2018-07-24T03:05:45.930Z,946.66
2018-07-24T03:07:38.843Z,946.69
2018-07-24T03:08:38.822Z,946.65
2018-07-24T03:10:31.717Z,946.64
2018-07-24T03:11:31.699Z,946.65
2018-07-24T03:13:24.604Z,946.66
2018-07-24T03:14:24.583Z,946.70
2018-07-24T03:16:17.542Z,946.68
2018-07-24T03:17:17.455Z,946.65
2018-07-24T03:19:10.374Z,946.68
2018-07-24T03:20:10.351Z,946.65
2018-07-24T03:22:03.257Z,946.66
2018-07-24T03:23:03.240Z,946.67
2018-07-24T03:24:56.145Z,946.65
2018-07-24T03:25:56.126Z,946.64
2018-07-24T03:27:49.029Z,946.68
2018-07-24T03:28:48.999Z,946.66
2018-07-24T03:30:41.965Z,946.64
2018-07-24T03:31:41.935Z,946.68
2018-07-24T03:33:34.963Z,946.67
2018-07-24T03:34:34.969Z,946.67
2018-07-24T03:36:27.916Z,946.67
2018-07-24T03:37:27.898Z,946.71
2018-07-24T03:39:20.922Z,946.68
2018-07-24T03:40:20.890Z,946.66
2018-07-24T03:42:13.925Z,946.67
2018-07-24T03:43:13.899Z,946.63
2018-07-24T03:45:06.948Z,946.67
2018-07-24T03:46:06.888Z,946.64
2018-07-24T03:47:59.927Z,946.62
2018-07-24T03:48:59.907Z,946.62
2018-07-24T03:50:52.809Z,946.56
2018-07-24T03:51:52.800Z,946.55
2018-07-24T03:53:45.772Z,946.53
2018-07-24T03:54:45.761Z,946.52
2018-07-24T03:56:38.674Z,946.56
2018-07-24T03:57:38.666Z,946.55
2018-07-24T03:59:31.663Z,946.57
2018-07-24T04:00:31.616Z,946.57
2018-07-24T04:02:24.581Z,946.64
2018-07-24T04:03:24.533Z,946.59
2018-07-24T04:05:17.475Z,946.60
2018-07-24T04:06:17.467Z,946.62
2018-07-24T04:08:10.433Z,946.60
2018-07-24T04:09:10.419Z,946.62
2018-07-24T04:11:03.385Z,946.64
2018-07-24T04:12:03.373Z,946.60
2018-07-24T04:13:56.297Z,946.63
2018-07-24T04:14:56.278Z,946.59
2018-07-24T04:16:49.293Z,946.60
2018-07-24T04:17:49.280Z,946.63
2018-07-24T04:19:42.199Z,946.59
2018-07-24T04:20:42.181Z,946.58
2018-07-24T04:22:35.206Z,946.55
2018-07-24T04:23:35.184Z,946.55
2018-07-24T04:25:28.200Z,946.51
2018-07-24T04:26:28.171Z,946.55
2018-07-24T04:28:21.091Z,946.55
2018-07-24T04:29:21.061Z,946.58
2018-07-24T04:31:14.040Z,946.56
2018-07-24T04:32:13.974Z,946.53
2018-07-24T04:34:06.950Z,946.55
2018-07-24T04:35:06.930Z,946.57
2018-07-24T04:36:59.866Z,946.57
2018-07-24T04:37:59.857Z,946.57
2018-07-24T04:39:52.855Z,946.53
2018-07-24T04:40:52.805Z,946.55
2018-07-24T04:42:45.778Z,946.56
2018-07-24T04:43:45.764Z,946.53
2018-07-24T04:45:38.703Z,946.51
2018-07-24T04:46:38.683Z,946.48
2018-07-24T04:48:31.679Z,946.47
2018-07-24T04:49:31.593Z,946.48
2018-07-24T04:51:24.551Z,946.46
2018-07-24T04:52:24.540Z,946.43
2018-07-24T04:54:17.518Z,946.39
2018-07-24T04:55:17.501Z,946.40
2018-07-24T04:57:10.508Z,946.43
2018-07-24T04:58:10.500Z,946.48
2018-07-24T05:00:03.499Z,946.42
2018-07-24T05:01:03.483Z,946.45
2018-07-24T05:02:56.442Z,946.46
2018-07-24T05:03:56.421Z,946.43
2018-07-24T05:05:49.324Z,946.46
2018-07-24T05:06:49.305Z,946.45
2018-07-24T05:08:42.276Z,946.46
2018-07-24T05:09:42.260Z,946.46
2018-07-24T05:11:35.209Z,946.46
2018-07-24T05:12:35.193Z,946.47
2018-07-24T05:14:28.139Z,946.44
2018-07-24T05:15:28.122Z,946.47
2018-07-24T05:17:21.090Z,946.44
2018-07-24T05:18:21.061Z,946.43
2018-07-24T05:20:14.013Z,946.45
2018-07-24T05:21:13.993Z,946.48
2018-07-24T05:23:06.929Z,946.47
2018-07-24T05:24:06.923Z,946.47
2018-07-24T05:25:59.915Z,946.46
2018-07-24T05:26:59.844Z,946.47
2018-07-24T05:28:52.849Z,946.49
2018-07-24T05:29:52.831Z,946.49
2018-07-24T05:31:45.735Z,946.47
2018-07-24T05:32:45.729Z,946.51
2018-07-24T05:34:38.659Z,946.52
2018-07-24T05:35:38.646Z,946.53
2018-07-24T05:37:31.596Z,946.54
2018-07-24T05:38:31.590Z,946.57
2018-07-24T05:40:24.528Z,946.57
2018-07-24T05:41:24.510Z,946.62
2018-07-24T05:43:17.440Z,946.57
2018-07-24T05:44:17.432Z,946.56
2018-07-24T05:46:10.385Z,946.59
2018-07-24T05:47:10.348Z,946.60
2018-07-24T05:49:03.365Z,946.62
2018-07-24T05:50:03.277Z,946.59
2018-07-24T05:51:56.197Z,946.59
2018-07-24T05:52:56.197Z,946.54
2018-07-24T05:54:49.178Z,946.55
2018-07-24T05:55:49.156Z,946.55
2018-07-24T05:57:42.181Z,946.56
2018-07-24T05:58:42.166Z,946.56
2018-07-24T06:00:35.113Z,946.60
2018-07-24T06:01:35.101Z,946.59
2018-07-24T06:03:28.085Z,946.62
2018-07-24T06:04:28.076Z,946.60
2018-07-24T06:06:21.054Z,946.59
2018-07-24T06:07:21.138Z,946.58
2018-07-24T06:09:14.016Z,946.60
2018-07-24T06:10:14.000Z,946.64
2018-07-24T06:12:07.056Z,946.59
2018-07-24T06:13:07.077Z,946.56
2018-07-24T06:15:00.057Z,946.50
2018-07-24T06:16:00.032Z,946.54
2018-07-24T06:17:52.972Z,946.56
2018-07-24T06:18:52.971Z,946.52
2018-07-24T06:20:45.951Z,946.49
2018-07-24T06:21:45.964Z,946.52
2018-07-24T06:23:38.998Z,946.53
2018-07-24T06:24:38.928Z,946.53
2018-07-24T06:25:38.924Z,946.50
2018-07-24T06:26:38.931Z,946.46
2018-07-24T06:27:38.934Z,946.51
2018-07-24T06:28:38.939Z,946.52
2018-07-24T06:29:38.929Z,946.54
2018-07-24T06:30:38.929Z,946.49
2018-07-24T06:31:38.932Z,946.49
2018-07-24T06:32:38.933Z,946.52
2018-07-24T06:33:38.940Z,946.52
2018-07-24T06:34:38.936Z,946.53
2018-07-24T06:35:38.934Z,946.51
2018-07-24T06:36:38.944Z,946.51
2018-07-24T06:37:38.939Z,946.50
2018-07-24T06:38:38.945Z,946.49
2018-07-24T06:39:38.959Z,946.48
2018-07-24T06:40:38.943Z,946.48
2018-07-24T06:41:38.941Z,946.48
2018-07-24T06:42:38.945Z,946.50
2018-07-24T06:43:38.944Z,946.46
2018-07-24T06:44:38.960Z,946.47
2018-07-24T06:45:38.949Z,946.51
2018-07-24T06:46:38.952Z,946.47
2018-07-24T06:47:38.950Z,946.48
2018-07-24T06:48:38.968Z,946.46
2018-07-24T06:49:38.955Z,946.48
2018-07-24T06:50:38.965Z,946.49
2018-07-24T06:51:39.044Z,946.49
2018-07-24T06:52:38.965Z,946.50
2018-07-24T06:53:38.965Z,946.49
2018-07-24T06:54:38.965Z,946.48
2018-07-24T06:55:38.959Z,946.48
2018-07-24T06:56:39.013Z,946.52
2018-07-24T06:57:38.971Z,946.51
2018-07-24T06:58:38.973Z,946.47
2018-07-24T06:59:38.973Z,946.48
2018-07-24T07:00:38.983Z,946.47
2018-07-24T07:01:38.977Z,946.52
2018-07-24T07:02:38.979Z,946.48
2018-07-24T07:03:38.984Z,946.47
2018-07-24T07:04:38.984Z,946.48
2018-07-24T07:05:38.988Z,946.47
2018-07-24T07:06:38.988Z,946.49
2018-07-24T07:07:39.023Z,946.47
2018-07-24T07:08:38.993Z,946.50
2018-07-24T07:09:38.995Z,946.46
2018-07-24T07:10:38.997Z,946.50
2018-07-24T07:11:39.003Z,946.53
2018-07-24T07:12:39.003Z,946.55
2018-07-24T07:13:39.008Z,946.52
2018-07-24T07:14:39.012Z,946.51
2018-07-24T07:15:39.015Z,946.51
2018-07-24T07:16:39.018Z,946.59
2018-07-24T07:17:39.016Z,946.63
2018-07-24T07:18:39.021Z,946.72
2018-07-24T07:19:39.015Z,946.70
2018-07-24T07:20:39.046Z,946.61
2018-07-24T07:21:39.041Z,946.65
2018-07-24T07:22:39.045Z,946.70
2018-07-24T07:23:39.052Z,946.65
2018-07-24T07:24:39.061Z,946.72
2018-07-24T07:25:39.082Z,946.69
2018-07-24T07:26:39.068Z,946.65
2018-07-24T07:27:39.076Z,946.71
2018-07-24T07:28:39.078Z,946.68
2018-07-24T07:29:39.094Z,946.68
2018-07-24T07:30:39.102Z,946.69
2018-07-24T07:31:39.113Z,946.70
2018-07-24T07:32:39.161Z,946.73
2018-07-24T07:33:39.135Z,946.71
2018-07-24T07:34:39.145Z,946.70
2018-07-24T07:35:39.153Z,946.71
2018-07-24T07:36:39.163Z,946.69
2018-07-24T07:37:39.176Z,946.68
2018-07-24T07:38:39.188Z,946.68
2018-07-24T07:39:39.201Z,946.71
2018-07-24T07:40:39.204Z,946.70
2018-07-24T07:41:39.217Z,946.67
2018-07-24T07:42:39.250Z,946.69
2018-07-24T07:43:39.245Z,946.69
2018-07-24T07:44:39.259Z,946.69
2018-07-24T07:45:39.274Z,946.73
2018-07-24T07:46:39.281Z,946.73
2018-07-24T07:47:39.291Z,946.72
2018-07-24T07:48:39.312Z,946.69
2018-07-24T07:49:39.320Z,946.70
2018-07-24T07:50:39.334Z,946.70
2018-07-24T07:51:39.355Z,946.70
2018-07-24T07:52:39.367Z,946.71
2018-07-24T07:53:39.374Z,946.67
2018-07-24T07:54:39.386Z,946.65
2018-07-24T07:55:39.399Z,946.61
2018-07-24T07:56:39.408Z,946.61
2018-07-24T07:57:39.462Z,946.60
2018-07-24T07:58:39.448Z,946.59
2018-07-24T07:59:39.477Z,946.62
2018-07-24T08:00:39.480Z,946.58
2018-07-24T08:01:39.480Z,946.60
2018-07-24T08:02:39.498Z,946.57
2018-07-24T08:03:39.516Z,946.56
2018-07-24T08:04:39.524Z,946.58
2018-07-24T08:05:39.537Z,946.57
2018-07-24T08:06:39.584Z,946.56
2018-07-24T08:07:39.642Z,946.57
2018-07-24T08:08:39.596Z,946.56
2018-07-24T08:09:39.600Z,946.52
2018-07-24T08:10:39.609Z,946.58
2018-07-24T08:11:39.622Z,946.55
2018-07-24T08:12:39.636Z,946.49
2018-07-24T08:13:39.656Z,946.51
2018-07-24T08:14:39.664Z,946.54
2018-07-24T08:15:39.684Z,946.52
2018-07-24T08:16:39.691Z,946.47
2018-07-24T08:17:39.711Z,946.53
2018-07-24T08:18:39.723Z,946.49
2018-07-24T08:19:39.737Z,946.49
2018-07-24T08:20:39.749Z,946.48
2018-07-24T08:21:39.769Z,946.44
2018-07-24T08:22:39.785Z,946.47
2018-07-24T08:23:39.799Z,946.47
2018-07-24T08:24:39.837Z,946.44
2018-07-24T08:25:39.991Z,946.46
2018-07-24T08:26:39.846Z,946.48
2018-07-24T08:27:39.860Z,946.48
2018-07-24T08:28:39.876Z,946.53
2018-07-24T08:29:39.886Z,946.52
2018-07-24T08:30:39.904Z,946.46
2018-07-24T08:31:39.921Z,946.47
2018-07-24T08:32:39.936Z,946.50
2018-07-24T08:33:39.953Z,946.46
2018-07-24T08:34:39.965Z,946.50
2018-07-24T08:35:39.981Z,946.46
2018-07-24T08:36:39.987Z,946.50
2018-07-24T08:37:40.001Z,946.53
2018-07-24T08:38:40.031Z,946.54
2018-07-24T08:39:40.043Z,946.50
2018-07-24T08:40:40.060Z,946.53
2018-07-24T08:41:40.077Z,946.51
2018-07-24T08:42:40.090Z,946.52
2018-07-24T08:43:40.097Z,946.54
2018-07-24T08:44:40.175Z,946.51
2018-07-24T08:45:40.164Z,946.49
2018-07-24T08:46:40.150Z,946.48
2018-07-24T08:47:40.168Z,946.52
2018-07-24T08:48:40.183Z,946.50
2018-07-24T08:49:40.197Z,946.44
2018-07-24T08:50:40.218Z,946.47
2018-07-24T08:51:40.230Z,946.47
2018-07-24T08:52:40.371Z,946.53
2018-07-24T08:53:40.547Z,946.51
2018-07-24T08:54:40.500Z,946.52
2018-07-24T08:55:40.517Z,946.45
2018-07-24T08:56:40.325Z,946.50
2018-07-24T08:57:40.368Z,946.47
2018-07-24T08:58:40.339Z,946.54
2018-07-24T08:59:40.357Z,946.48
2018-07-24T09:00:40.371Z,946.55
2018-07-24T09:01:40.391Z,946.54
2018-07-24T09:02:40.408Z,946.49
2018-07-24T09:03:40.501Z,946.49
2018-07-24T09:04:40.445Z,946.47
2018-07-24T09:05:40.455Z,946.46
2018-07-24T09:06:40.474Z,946.45
2018-07-24T09:07:40.489Z,946.46
2018-07-24T09:08:40.506Z,946.43
2018-07-24T09:09:40.522Z,946.47
2018-07-24T09:10:40.545Z,946.40
2018-07-24T09:11:40.560Z,946.48
2018-07-24T09:12:40.582Z,946.39
2018-07-24T09:13:40.605Z,946.45
2018-07-24T09:14:40.617Z,946.47
2018-07-24T09:15:40.669Z,946.46
2018-07-24T09:16:40.658Z,946.47
2018-07-24T09:17:40.676Z,946.44
2018-07-24T09:18:40.688Z,946.42
2018-07-24T09:19:40.707Z,946.43
2018-07-24T09:20:40.724Z,946.44
2018-07-24T09:21:40.750Z,946.39
2018-07-24T09:22:40.762Z,946.41
2018-07-24T09:23:40.785Z,946.38
2018-07-24T09:24:40.803Z,946.39
2018-07-24T09:25:40.826Z,946.41
2018-07-24T09:26:40.833Z,946.40
2018-07-24T09:27:40.851Z,946.36
2018-07-24T09:28:40.871Z,946.39
2018-07-24T09:29:40.890Z,946.40
2018-07-24T09:30:40.908Z,946.43
2018-07-24T09:31:40.926Z,946.44
2018-07-24T09:32:40.940Z,946.43
2018-07-24T09:33:40.962Z,946.40
2018-07-24T09:34:40.974Z,946.46
2018-07-24T09:35:41.001Z,946.44
2018-07-24T09:36:41.008Z,946.42
2018-07-24T09:37:41.022Z,946.45
2018-07-24T09:38:41.040Z,946.39
2018-07-24T09:39:41.070Z,946.44
2018-07-24T09:40:41.086Z,946.44
2018-07-24T09:41:41.102Z,946.38
2018-07-24T09:42:41.122Z,946.37
2018-07-24T09:43:41.141Z,946.38
2018-07-24T09:44:41.151Z,946.33
2018-07-24T09:45:41.174Z,946.32
2018-07-24T09:46:41.187Z,946.36
2018-07-24T09:47:41.202Z,946.32
2018-07-24T09:48:41.225Z,946.35
2018-07-24T09:49:41.242Z,946.32
2018-07-24T09:50:41.396Z,946.32
2018-07-24T09:51:41.273Z,946.33
2018-07-24T09:52:41.308Z,946.28
2018-07-24T09:53:41.308Z,946.28
2018-07-24T09:54:41.327Z,946.28
2018-07-24T09:55:41.345Z,946.30
2018-07-24T09:56:41.365Z,946.31
2018-07-24T09:57:41.382Z,946.30
2018-07-24T09:58:41.401Z,946.29
2018-07-24T09:59:41.414Z,946.31
2018-07-24T10:00:41.434Z,946.32
2018-07-24T10:01:41.457Z,946.32
2018-07-24T10:02:41.471Z,946.33
2018-07-24T10:03:41.489Z,946.34
2018-07-24T10:04:41.499Z,946.32
2018-07-24T10:05:41.525Z,946.30
2018-07-24T10:06:41.538Z,946.35
2018-07-24T10:07:41.555Z,946.31
2018-07-24T10:08:41.563Z,946.29
2018-07-24T10:09:41.597Z,946.32
2018-07-24T10:10:41.610Z,946.33
2018-07-24T10:11:41.626Z,946.34
2018-07-24T10:12:41.776Z,946.32
2018-07-24T10:13:41.668Z,946.29
2018-07-24T10:14:41.681Z,946.26
2018-07-24T10:15:41.697Z,946.27
2018-07-24T10:16:41.844Z,946.24
2018-07-24T10:17:41.723Z,946.20
2018-07-24T10:18:41.746Z,946.16
2018-07-24T10:19:41.772Z,946.21
2018-07-24T10:20:41.784Z,946.24
2018-07-24T10:21:41.804Z,946.20
2018-07-24T10:22:41.824Z,946.19
2018-07-24T10:23:41.838Z,946.17
2018-07-24T10:24:41.851Z,946.16
2018-07-24T10:25:41.867Z,946.14
2018-07-24T10:26:41.886Z,946.12
2018-07-24T10:27:41.921Z,946.11
2018-07-24T10:28:41.920Z,946.12
2018-07-24T10:29:41.939Z,946.16
2018-07-24T10:30:41.955Z,946.14
2018-07-24T10:31:41.974Z,946.12
2018-07-24T10:32:41.990Z,946.09
2018-07-24T10:33:42.004Z,946.06
2018-07-24T10:34:42.022Z,946.07
2018-07-24T10:35:42.038Z,946.04
2018-07-24T10:36:42.058Z,946.00
2018-07-24T10:37:42.077Z,945.97
2018-07-24T10:38:42.090Z,945.98
2018-07-24T10:39:42.112Z,945.99
2018-07-24T10:40:42.125Z,946.01
2018-07-24T10:41:42.154Z,945.98
2018-07-24T10:42:42.160Z,946.03
2018-07-24T10:43:42.173Z,945.97
2018-07-24T10:44:42.190Z,946.02
2018-07-24T10:45:42.208Z,945.99
2018-07-24T10:46:42.230Z,945.92
2018-07-24T10:47:42.247Z,945.90
2018-07-24T10:48:42.274Z,945.93
2018-07-24T10:49:42.285Z,945.90
2018-07-24T10:50:42.297Z,945.95
2018-07-24T10:51:42.319Z,945.91
2018-07-24T10:52:42.332Z,945.90
2018-07-24T10:53:42.354Z,945.90
2018-07-24T10:54:42.365Z,945.86
2018-07-24T10:55:42.388Z,945.85
2018-07-24T10:56:42.407Z,945.89
2018-07-24T10:57:42.413Z,945.89
2018-07-24T10:58:42.437Z,945.84
2018-07-24T10:59:42.452Z,945.90
2018-07-24T11:00:42.473Z,945.88
2018-07-24T11:01:42.492Z,945.91
2018-07-24T11:02:42.511Z,945.95
2018-07-24T11:03:42.526Z,945.89
2018-07-24T11:04:42.544Z,945.90
2018-07-24T11:05:42.561Z,945.92
2018-07-24T11:06:42.575Z,945.90
2018-07-24T11:07:42.592Z,945.93
2018-07-24T11:08:42.617Z,945.90
2018-07-24T11:09:42.633Z,945.85
2018-07-24T11:10:42.645Z,945.88
2018-07-24T11:11:42.665Z,945.84
2018-07-24T11:12:42.677Z,945.84
2018-07-24T11:13:42.700Z,945.83
2018-07-24T11:14:42.714Z,945.83
2018-07-24T11:15:42.732Z,945.81
2018-07-24T11:16:42.755Z,945.88
2018-07-24T11:17:42.766Z,945.80
2018-07-24T11:18:42.790Z,945.85
2018-07-24T11:19:42.803Z,945.83
2018-07-24T11:20:42.823Z,945.79
2018-07-24T11:21:42.840Z,945.82
2018-07-24T11:22:42.973Z,945.83
2018-07-24T11:23:42.861Z,945.83
2018-07-24T11:24:42.897Z,945.84
2018-07-24T11:25:42.933Z,945.81
2018-07-24T11:26:42.921Z,945.78
2018-07-24T11:27:42.938Z,945.77
2018-07-24T11:28:42.956Z,945.85
2018-07-24T11:29:42.971Z,945.82
2018-07-24T11:30:42.992Z,945.82
2018-07-24T11:31:43.017Z,945.84
2018-07-24T11:32:43.026Z,945.85
2018-07-24T11:33:43.052Z,945.80
2018-07-24T11:34:43.058Z,945.84
2018-07-24T11:35:43.286Z,945.79
2018-07-24T11:36:43.088Z,945.83
2018-07-24T11:37:43.107Z,945.83
2018-07-24T11:38:43.168Z,945.82
2018-07-24T11:39:43.141Z,945.82
2018-07-24T11:40:43.156Z,945.79
2018-07-24T11:41:43.177Z,945.82
2018-07-24T11:42:43.190Z,945.83
2018-07-24T11:43:43.207Z,945.78
2018-07-24T11:44:43.225Z,945.73
2018-07-24T11:45:43.248Z,945.71
2018-07-24T11:46:43.261Z,945.73
2018-07-24T11:47:43.268Z,945.77
2018-07-24T11:48:43.282Z,945.71
2018-07-24T11:49:43.308Z,945.75
2018-07-24T11:50:43.324Z,945.71
2018-07-24T11:51:43.391Z,945.72
2018-07-24T11:52:43.357Z,945.72
2018-07-24T11:53:43.376Z,945.75
2018-07-24T11:54:43.390Z,945.69
2018-07-24T11:55:43.410Z,945.71
2018-07-24T11:56:43.426Z,945.71
2018-07-24T11:57:43.475Z,945.68
2018-07-24T11:58:43.523Z,945.66
2018-07-24T11:59:43.492Z,945.64
2018-07-24T12:00:43.488Z,945.68
2018-07-24T12:01:43.511Z,945.60
2018-07-24T12:02:43.526Z,945.70
2018-07-24T12:03:43.541Z,945.68
2018-07-24T12:04:43.588Z,945.66
2018-07-24T12:05:43.576Z,945.65
2018-07-24T12:06:43.594Z,945.62
2018-07-24T12:07:43.705Z,945.62
2018-07-24T12:08:43.628Z,945.60
2018-07-24T12:09:43.642Z,945.62
2018-07-24T12:10:43.656Z,945.57
2018-07-24T12:11:43.757Z,945.58
2018-07-24T12:12:43.684Z,945.56
2018-07-24T12:13:43.709Z,945.59
2018-07-24T12:14:43.773Z,945.59
2018-07-24T12:15:43.741Z,945.60
2018-07-24T12:16:43.755Z,945.54
2018-07-24T12:17:43.773Z,945.56
2018-07-24T12:18:43.797Z,945.53
2018-07-24T12:19:43.901Z,945.59
2018-07-24T12:20:43.823Z,945.52
2018-07-24T12:21:43.859Z,945.54
2018-07-24T12:22:43.854Z,945.56
2018-07-24T12:23:43.869Z,945.49
2018-07-24T12:24:43.886Z,945.55
2018-07-24T12:25:43.904Z,945.56
2018-07-24T12:26:43.931Z,945.55
2018-07-24T12:27:43.933Z,945.55
2018-07-24T12:28:43.953Z,945.52
2018-07-24T12:29:43.964Z,945.52
2018-07-24T12:30:43.986Z,945.50
2018-07-24T12:31:43.997Z,945.56
2018-07-24T12:32:44.015Z,945.49
2018-07-24T12:33:44.031Z,945.49
2018-07-24T12:34:44.046Z,945.49
2018-07-24T12:35:44.857Z,945.50
2018-07-24T12:36:44.074Z,945.51
2018-07-24T12:37:44.081Z,945.47
2018-07-24T12:38:44.109Z,945.44
2018-07-24T12:39:44.121Z,945.44
2018-07-24T12:40:44.282Z,945.42
2018-07-24T12:41:44.157Z,945.41
2018-07-24T12:42:44.168Z,945.33
2018-07-24T12:43:44.236Z,945.40
2018-07-24T12:44:44.196Z,945.31
2018-07-24T12:45:44.215Z,945.32
2018-07-24T12:46:44.225Z,945.35
2018-07-24T12:47:44.232Z,945.39
2018-07-24T12:48:44.247Z,945.32
2018-07-24T12:49:44.257Z,945.29
2018-07-24T12:50:44.268Z,945.29
2018-07-24T12:51:44.278Z,945.30
2018-07-24T12:52:44.291Z,945.28
2018-07-24T12:53:44.300Z,945.26
2018-07-24T12:54:44.329Z,945.26
2018-07-24T12:55:44.317Z,945.23
2018-07-24T12:56:44.325Z,945.20
2018-07-24T12:57:44.331Z,945.18
2018-07-24T12:58:44.345Z,945.19
2018-07-24T12:59:44.349Z,945.18
2018-07-24T13:00:44.357Z,945.22
2018-07-24T13:01:44.362Z,945.20
2018-07-24T13:02:44.373Z,945.20
2018-07-24T13:03:44.389Z,945.14
2018-07-24T13:04:44.384Z,945.12
2018-07-24T13:05:44.401Z,945.08
2018-07-24T13:06:44.400Z,945.08
2018-07-24T13:07:44.419Z,945.13
2018-07-24T13:08:44.412Z,945.13
2018-07-24T13:09:44.418Z,945.17
2018-07-24T13:10:44.480Z,945.18
2018-07-24T13:11:44.721Z,945.16
2018-07-24T13:12:44.437Z,945.14
2018-07-24T13:13:44.442Z,945.14
2018-07-24T13:14:44.450Z,945.10
2018-07-24T13:15:44.457Z,945.04
2018-07-24T13:16:44.530Z,945.10
2018-07-24T13:17:44.470Z,945.07
2018-07-24T13:18:44.474Z,945.06
2018-07-24T13:19:44.484Z,945.05
2018-07-24T13:20:44.486Z,945.06
2018-07-24T13:21:44.489Z,945.06
2018-07-24T13:22:44.505Z,945.02
2018-07-24T13:23:44.501Z,945.02
2018-07-24T13:24:44.561Z,944.95
2018-07-24T13:25:44.511Z,944.96
2018-07-24T13:26:44.518Z,944.96
2018-07-24T13:27:44.523Z,945.00
2018-07-24T13:28:44.535Z,945.03
2018-07-24T13:29:44.534Z,945.00
2018-07-24T13:30:44.537Z,944.99
2018-07-24T13:31:44.605Z,945.01
2018-07-24T13:32:44.550Z,944.97
2018-07-24T13:33:44.555Z,944.97
2018-07-24T13:34:44.566Z,944.96
2018-07-24T13:35:44.570Z,944.99
2018-07-24T13:36:44.623Z,944.95
2018-07-24T13:37:44.570Z,944.98
2018-07-24T13:38:44.581Z,944.95
2018-07-24T13:39:44.583Z,944.98
2018-07-24T13:40:44.596Z,944.95
2018-07-24T13:41:44.594Z,944.95
2018-07-24T13:42:44.622Z,944.97
2018-07-24T13:43:44.606Z,944.95
2018-07-24T13:44:44.610Z,944.94
2018-07-24T13:45:44.613Z,944.93
2018-07-24T13:46:44.623Z,944.95
2018-07-24T13:47:44.626Z,944.91
2018-07-24T13:48:44.629Z,944.90
2018-07-24T13:49:44.638Z,944.92
2018-07-24T13:50:44.638Z,944.91
2018-07-24T13:51:44.647Z,944.92
2018-07-24T13:52:44.650Z,944.92
2018-07-24T13:53:44.660Z,944.90
2018-07-24T13:54:44.661Z,944.94
2018-07-24T13:55:44.667Z,944.92
2018-07-24T13:56:44.672Z,944.91
2018-07-24T13:57:44.677Z,944.89
2018-07-24T13:58:44.690Z,944.93
2018-07-24T13:59:44.689Z,944.96
2018-07-24T14:00:44.690Z,944.95
2018-07-24T14:01:44.700Z,944.94
2018-07-24T14:02:44.705Z,944.94
2018-07-24T14:03:44.706Z,944.93
2018-07-24T14:04:44.712Z,944.93
2018-07-24T14:05:44.718Z,944.94
2018-07-24T14:06:44.722Z,944.93
2018-07-24T14:07:44.751Z,944.93
2018-07-24T14:08:44.736Z,944.95
2018-07-24T14:09:44.737Z,944.96
2018-07-24T14:10:44.742Z,944.91
2018-07-24T14:11:44.748Z,944.95
2018-07-24T14:12:44.751Z,944.92
2018-07-24T14:13:44.755Z,944.94
2018-07-24T14:14:44.761Z,944.95
2018-07-24T14:15:44.762Z,944.95
2018-07-24T14:16:44.770Z,944.94
2018-07-24T14:17:44.776Z,944.89
2018-07-24T14:18:44.781Z,944.89
2018-07-24T14:19:44.785Z,944.88
2018-07-24T14:20:44.779Z,944.91